createdAt,value
2022-10-17T00:00:53.419Z,2.00
2022-10-17T00:03:23.248Z,2.10
2022-10-17T00:05:58.720Z,2.20
2022-10-17T00:08:26.511Z,2.15
2022-10-17T00:11:08.953Z,2.10
2022-10-17T00:13:36.879Z,2.13
2022-10-17T00:16:13.234Z,2.28
2022-10-17T00:18:47.616Z,2.10
2022-10-17T00:21:19.169Z,2.05
2022-10-17T00:23:47.337Z,2.17
2022-10-17T00:26:22.588Z,2.08
2022-10-17T00:28:52.111Z,2.38
2022-10-17T00:31:22.385Z,2.30
2022-10-17T00:33:56.995Z,2.03
2022-10-17T00:36:27.715Z,1.98
2022-10-17T00:39:08.540Z,2.65
2022-10-17T00:41:36.010Z,2.10
2022-10-17T00:44:06.922Z,2.28
2022-10-17T00:46:43.600Z,2.30
2022-10-17T00:49:16.473Z,2.33
2022-10-17T00:51:53.487Z,2.13
2022-10-17T00:54:25.470Z,2.15
2022-10-17T00:57:00.505Z,2.35
2022-10-17T00:59:33.000Z,2.40
2022-10-17T01:02:11.070Z,2.00
2022-10-17T01:04:42.075Z,2.55
2022-10-17T01:07:10.491Z,2.45
2022-10-17T01:09:45.085Z,2.00
2022-10-17T01:12:21.009Z,1.98
2022-10-17T01:15:19.951Z,2.38
2022-10-17T01:17:56.333Z,2.50
2022-10-17T01:20:51.917Z,2.28
2022-10-17T01:23:37.782Z,2.42
2022-10-17T01:26:38.929Z,2.72
2022-10-17T01:29:42.017Z,2.15
2022-10-17T01:32:35.902Z,2.25
2022-10-17T01:35:24.827Z,2.50
2022-10-17T01:38:25.909Z,2.55
2022-10-17T01:41:18.598Z,2.28
2022-10-17T01:44:01.944Z,2.28
2022-10-17T01:46:34.880Z,2.40
2022-10-17T01:49:10.956Z,2.60
2022-10-17T01:52:13.636Z,2.38
2022-10-17T01:54:55.969Z,2.58
2022-10-17T01:57:33.379Z,2.60
2022-10-17T02:00:08.904Z,2.53
2022-10-17T02:02:37.443Z,2.53
2022-10-17T02:05:05.419Z,3.00
2022-10-17T02:07:38.924Z,2.75
2022-10-17T02:10:18.967Z,3.08
2022-10-17T02:13:01.170Z,2.55
2022-10-17T02:15:54.488Z,2.92
2022-10-17T02:18:54.150Z,2.88
2022-10-17T02:21:31.837Z,2.42
2022-10-17T02:24:37.550Z,2.20
2022-10-17T02:27:26.494Z,2.70
2022-10-17T02:30:15.523Z,2.78
2022-10-17T02:33:02.053Z,2.85
2022-10-17T02:35:41.545Z,2.17
2022-10-17T02:38:17.609Z,2.63
2022-10-17T02:40:59.539Z,2.92
2022-10-17T02:43:27.612Z,3.10
2022-10-17T02:45:56.525Z,2.92
2022-10-17T02:48:55.522Z,3.10
2022-10-17T02:51:44.353Z,2.70
2022-10-17T02:54:40.793Z,2.85
2022-10-17T02:57:14.081Z,2.80
2022-10-17T02:59:55.800Z,2.67
2022-10-17T03:02:23.329Z,2.60
2022-10-17T03:04:50.775Z,2.90
2022-10-17T03:07:24.789Z,3.05
2022-10-17T03:09:54.813Z,2.70
2022-10-17T03:12:22.149Z,2.70
2022-10-17T03:14:55.815Z,2.55
2022-10-17T03:17:23.219Z,2.20
2022-10-17T03:19:50.571Z,2.78
2022-10-17T03:22:24.869Z,2.58
2022-10-17T03:24:52.212Z,2.80
2022-10-17T03:27:21.863Z,2.92
2022-10-17T03:29:55.931Z,2.90
2022-10-17T03:32:27.761Z,3.03
2022-10-17T03:34:55.165Z,2.60
2022-10-17T03:37:32.285Z,2.60
2022-10-17T03:40:06.044Z,2.60
2022-10-17T03:42:39.923Z,4.97
2022-10-17T03:45:07.631Z,3.17
2022-10-17T03:47:34.960Z,3.22
2022-10-17T03:50:08.960Z,2.70
2022-10-17T03:52:36.290Z,3.30
2022-10-17T03:55:08.778Z,2.72
2022-10-17T03:57:50.106Z,2.80
2022-10-17T04:00:17.521Z,2.38
2022-10-17T04:02:45.074Z,2.83
2022-10-17T04:05:19.092Z,2.40
2022-10-17T04:07:46.456Z,2.35
2022-10-17T04:10:13.837Z,2.60
2022-10-17T04:12:48.130Z,2.58
2022-10-17T04:15:15.624Z,3.53
2022-10-17T04:17:45.812Z,3.03
2022-10-17T04:20:24.131Z,2.78
2022-10-17T04:22:51.492Z,3.10
2022-10-17T04:25:21.109Z,2.85
2022-10-17T04:27:58.066Z,3.25
2022-10-17T04:30:25.760Z,3.20
2022-10-17T04:32:57.282Z,3.03
2022-10-17T04:35:33.878Z,3.05
2022-10-17T04:38:26.199Z,2.83
2022-10-17T04:41:10.911Z,3.10
2022-10-17T04:43:48.542Z,2.67
2022-10-17T04:46:25.543Z,2.80
2022-10-17T04:48:53.725Z,2.58
2022-10-17T04:51:24.454Z,2.97
2022-10-17T04:54:00.819Z,2.50
2022-10-17T04:56:28.152Z,2.58
2022-10-17T04:58:55.532Z,2.85
2022-10-17T05:01:31.579Z,2.53
2022-10-17T05:03:58.934Z,2.63
2022-10-17T05:06:30.279Z,2.55
2022-10-17T05:09:05.552Z,2.40
2022-10-17T05:11:33.089Z,2.20
2022-10-17T05:14:02.165Z,2.42
2022-10-17T05:16:36.679Z,2.53
2022-10-17T05:19:04.387Z,2.00
2022-10-17T05:24:26.626Z,2.20
2022-10-17T05:26:54.081Z,2.40
2022-10-17T05:29:21.557Z,2.38
2022-10-17T05:31:56.874Z,2.47
2022-10-17T05:34:25.168Z,2.88
2022-10-17T05:36:54.578Z,2.83
2022-10-17T05:39:29.685Z,2.30
2022-10-17T05:41:57.046Z,2.60
2022-10-17T05:44:24.451Z,2.60
2022-10-17T05:46:58.623Z,2.50
2022-10-17T05:49:33.305Z,3.08
2022-10-17T05:52:17.654Z,2.40
2022-10-17T05:54:45.098Z,2.80
2022-10-17T05:57:12.774Z,2.50
2022-10-17T05:59:46.591Z,2.58
2022-10-17T06:02:16.373Z,2.40
2022-10-17T06:04:46.094Z,2.55
2022-10-17T06:07:20.300Z,2.72
2022-10-17T06:09:47.691Z,2.30
2022-10-17T06:12:15.336Z,2.45
2022-10-17T06:14:49.336Z,2.25
2022-10-17T06:17:19.290Z,2.38
2022-10-17T06:19:46.902Z,2.50
2022-10-17T06:22:25.809Z,2.33
2022-10-17T06:24:57.544Z,2.35
2022-10-17T06:27:25.102Z,2.17
2022-10-17T06:30:01.683Z,2.42
2022-10-17T06:32:29.423Z,2.35
2022-10-17T06:35:19.739Z,2.10
2022-10-17T06:37:53.808Z,2.40
2022-10-17T06:40:34.680Z,2.20
2022-10-17T06:43:02.256Z,2.05
2022-10-17T06:45:29.733Z,2.17
2022-10-17T06:48:03.725Z,2.08
2022-10-17T06:50:31.177Z,2.13
2022-10-17T06:52:58.635Z,2.45
2022-10-17T06:55:32.687Z,2.13
2022-10-17T06:58:00.026Z,1.90
2022-10-17T07:00:27.439Z,1.92
2022-10-17T07:03:04.975Z,2.03
2022-10-17T07:05:35.426Z,2.35
2022-10-17T07:08:11.961Z,1.83
2022-10-17T07:10:39.426Z,1.85
2022-10-17T07:13:11.051Z,1.75
2022-10-17T07:15:46.107Z,1.60
2022-10-17T07:18:13.729Z,1.73
2022-10-17T07:20:58.555Z,1.70
2022-10-17T07:23:26.048Z,1.85
2022-10-17T07:25:53.665Z,1.75
2022-10-17T07:28:27.601Z,2.10
2022-10-17T07:30:55.441Z,1.90
2022-10-17T07:33:25.276Z,1.90
2022-10-17T07:36:01.130Z,2.45
2022-10-17T07:38:35.191Z,1.88
2022-10-17T07:41:20.928Z,2.10
2022-10-17T07:43:51.863Z,1.65
2022-10-17T07:46:19.311Z,1.77
2022-10-17T07:48:58.368Z,1.75
2022-10-17T07:51:29.239Z,1.50
2022-10-17T07:53:58.792Z,1.55
2022-10-17T07:56:32.829Z,1.80
2022-10-17T07:59:08.462Z,1.50
2022-10-17T08:01:46.429Z,1.50
2022-10-17T08:04:17.108Z,1.20
2022-10-17T08:06:46.962Z,1.80
2022-10-17T08:09:24.019Z,1.30
2022-10-17T08:11:51.455Z,1.40
2022-10-17T08:14:18.858Z,1.42
2022-10-17T08:16:55.856Z,1.42
2022-10-17T08:19:23.379Z,1.50
2022-10-17T08:21:51.979Z,1.65
2022-10-17T08:24:25.834Z,1.40
2022-10-17T08:26:53.628Z,1.42
2022-10-17T08:29:21.178Z,1.50
2022-10-17T08:32:02.364Z,1.50
2022-10-17T08:34:30.427Z,1.58
2022-10-17T08:36:57.868Z,1.42
2022-10-17T08:39:31.581Z,1.50
2022-10-17T08:42:43.796Z,1.25
2022-10-17T08:45:17.586Z,1.40
2022-10-17T08:48:00.411Z,1.30
2022-10-17T08:50:55.654Z,1.65
2022-10-17T08:53:54.726Z,1.52
2022-10-17T08:56:55.828Z,1.50
2022-10-17T08:59:31.115Z,1.58
2022-10-17T09:02:20.654Z,1.60
2022-10-17T09:05:09.657Z,1.60
2022-10-17T09:08:10.671Z,1.48
2022-10-17T09:10:40.354Z,1.75
2022-10-17T09:16:07.817Z,1.67
2022-10-17T09:18:46.583Z,2.15
2022-10-17T09:21:27.841Z,1.85
2022-10-17T09:24:15.422Z,2.03
2022-10-17T09:26:48.021Z,1.92
2022-10-17T09:29:36.943Z,2.00
2022-10-17T09:32:21.165Z,2.67
2022-10-17T09:34:56.128Z,1.80
2022-10-17T09:37:29.857Z,2.08
2022-10-17T09:40:13.759Z,1.48
2022-10-17T09:42:52.069Z,1.70
2022-10-17T09:45:33.902Z,1.50
2022-10-17T09:48:52.600Z,1.60
2022-10-17T09:51:30.399Z,1.65
2022-10-17T09:54:02.938Z,1.50
2022-10-17T09:56:37.356Z,1.60
2022-10-17T09:59:04.747Z,1.33
2022-10-17T10:01:33.302Z,1.50
2022-10-17T10:04:25.841Z,1.70
2022-10-17T10:07:12.524Z,1.55
2022-10-17T10:09:46.798Z,1.70
2022-10-17T10:12:21.825Z,1.40
2022-10-17T10:14:56.810Z,1.70
2022-10-17T10:17:42.833Z,1.45
2022-10-17T10:20:37.832Z,1.35
2022-10-17T10:23:21.171Z,1.52
2022-10-17T10:26:20.973Z,1.58
2022-10-17T10:29:01.265Z,1.67
2022-10-17T10:31:45.545Z,1.40
2022-10-17T10:34:29.102Z,1.35
2022-10-17T10:37:35.472Z,1.40
2022-10-17T10:40:29.707Z,1.60
2022-10-17T10:43:13.134Z,1.23
2022-10-17T10:45:48.013Z,1.75
2022-10-17T10:48:58.145Z,1.90
2022-10-17T10:51:42.643Z,1.73
2022-10-17T10:54:32.028Z,1.73
2022-10-17T10:57:06.688Z,1.83
2022-10-17T10:59:55.874Z,1.40
2022-10-17T11:02:55.219Z,1.98
2022-10-17T11:05:57.976Z,1.30
2022-10-17T11:08:49.153Z,1.58
2022-10-17T11:11:52.603Z,1.50
2022-10-17T11:15:09.579Z,1.38
2022-10-17T11:18:03.515Z,1.38
2022-10-17T11:20:33.708Z,1.38
2022-10-17T11:23:50.633Z,1.52
2022-10-17T11:26:34.627Z,1.40
2022-10-17T11:29:11.481Z,1.48
2022-10-17T11:31:50.697Z,1.30
2022-10-17T11:34:31.451Z,1.60
2022-10-17T11:37:06.835Z,1.60
2022-10-17T11:39:59.461Z,1.50
2022-10-17T11:42:35.745Z,1.30
2022-10-17T11:45:16.194Z,1.45
2022-10-17T11:47:51.306Z,1.20
2022-10-17T11:53:34.769Z,1.60
2022-10-17T11:56:09.699Z,1.20
2022-10-17T11:58:46.592Z,1.35
2022-10-17T12:01:34.711Z,1.42
2022-10-17T12:04:26.835Z,1.60
2022-10-17T12:07:17.655Z,1.40
2022-10-17T12:09:57.285Z,1.65
2022-10-17T12:12:34.655Z,1.50
2022-10-17T12:15:20.950Z,1.60
2022-10-17T12:18:04.616Z,1.50
2022-10-17T12:20:34.996Z,1.75
2022-10-17T12:23:17.727Z,1.95
2022-10-17T12:25:56.972Z,1.63
2022-10-17T12:28:47.756Z,1.55
2022-10-17T12:31:21.895Z,1.63
2022-10-17T12:33:57.744Z,2.00
2022-10-17T12:36:28.357Z,1.80
2022-10-17T12:39:18.711Z,1.90
2022-10-17T12:41:56.061Z,2.03
2022-10-17T12:44:34.949Z,1.80
2022-10-17T12:47:09.526Z,1.55
2022-10-17T12:49:44.583Z,1.48
2022-10-17T12:52:22.781Z,1.60
2022-10-17T12:55:12.681Z,1.42
2022-10-17T12:58:01.719Z,1.50
2022-10-17T13:00:49.823Z,1.50
2022-10-17T13:03:35.237Z,2.17
2022-10-17T13:06:13.890Z,1.73
2022-10-17T13:08:50.925Z,1.83
2022-10-17T13:11:32.666Z,1.60
2022-10-17T13:14:03.236Z,1.90
2022-10-17T13:16:45.582Z,1.60
2022-10-17T13:19:16.788Z,1.92
2022-10-17T13:22:07.611Z,1.88
2022-10-17T13:24:40.591Z,1.70
2022-10-17T13:27:38.609Z,2.08
2022-10-17T13:30:29.488Z,1.70
2022-10-17T13:33:06.653Z,1.45
2022-10-17T13:36:00.307Z,2.08
2022-10-17T13:38:41.754Z,1.85
2022-10-17T13:41:36.885Z,1.90
2022-10-17T13:44:23.726Z,1.80
2022-10-17T13:46:51.638Z,2.00
2022-10-17T13:49:55.269Z,1.83
2022-10-17T13:52:27.298Z,1.80
2022-10-17T13:55:02.760Z,1.65
2022-10-17T13:57:31.927Z,1.90
2022-10-17T14:00:02.358Z,2.08
2022-10-17T14:02:38.750Z,1.63
2022-10-17T14:05:17.329Z,1.90
2022-10-17T14:08:11.842Z,2.22
2022-10-17T14:10:43.403Z,1.80
2022-10-17T14:13:34.678Z,1.73
2022-10-17T14:16:03.902Z,2.17
2022-10-17T14:18:36.980Z,1.58
2022-10-17T14:24:21.693Z,1.80
2022-10-17T14:26:58.098Z,1.80
2022-10-17T14:29:49.369Z,1.45
2022-10-17T14:32:28.734Z,1.55
2022-10-17T14:35:09.608Z,1.67
2022-10-17T14:37:54.436Z,1.90
2022-10-17T14:40:33.559Z,1.60
2022-10-17T14:43:11.458Z,2.00
2022-10-17T14:45:40.458Z,1.80
2022-10-17T14:48:29.439Z,1.75
2022-10-17T14:51:18.186Z,1.65
2022-10-17T14:54:08.513Z,1.63
2022-10-17T14:56:43.409Z,1.90
2022-10-17T14:59:30.083Z,1.63
2022-10-17T15:02:08.737Z,1.90
2022-10-17T15:04:42.272Z,1.77
2022-10-17T15:07:19.452Z,1.48
2022-10-17T15:09:58.536Z,1.92
2022-10-17T15:12:26.772Z,2.13
2022-10-17T15:14:54.718Z,1.88
2022-10-17T15:17:36.610Z,2.22
2022-10-17T15:20:11.175Z,2.20
2022-10-17T15:22:46.660Z,4.13
2022-10-17T15:25:14.214Z,3.17
2022-10-17T15:27:42.165Z,3.88
2022-10-17T15:30:32.654Z,2.00
2022-10-17T15:33:00.684Z,8.35
2022-10-17T15:35:29.084Z,2.95
2022-10-17T15:38:03.586Z,2.00
2022-10-17T15:40:57.576Z,2.50
2022-10-17T15:43:31.569Z,5.88
2022-10-17T15:46:01.055Z,3.38
2022-10-17T15:48:38.720Z,2.20
2022-10-17T15:51:08.748Z,2.00
2022-10-17T15:53:36.629Z,2.10
2022-10-17T15:56:12.763Z,1.98
2022-10-17T15:58:40.931Z,2.20
2022-10-17T16:01:22.767Z,2.35
2022-10-17T16:03:50.888Z,2.33
2022-10-17T16:06:22.165Z,2.42
2022-10-17T16:08:56.631Z,2.13
2022-10-17T16:11:39.197Z,2.20
2022-10-17T16:14:21.644Z,2.10
2022-10-17T16:16:49.183Z,2.50
2022-10-17T16:19:17.049Z,2.15
2022-10-17T16:21:51.687Z,3.08
2022-10-17T16:24:19.210Z,2.42
2022-10-17T16:26:46.953Z,2.60
2022-10-17T16:29:20.629Z,2.40
2022-10-17T16:31:48.562Z,2.55
2022-10-17T16:34:16.760Z,2.10
2022-10-17T16:36:52.688Z,2.90
2022-10-17T16:39:40.721Z,2.80
2022-10-17T16:42:14.654Z,2.65
2022-10-17T16:44:42.380Z,2.75
2022-10-17T16:47:10.143Z,2.60
2022-10-17T16:49:47.705Z,2.40
2022-10-17T16:52:17.939Z,3.15
2022-10-17T16:54:45.666Z,3.40
2022-10-17T16:57:19.997Z,3.22
2022-10-17T16:59:47.814Z,2.42
2022-10-17T17:02:17.628Z,2.72
2022-10-17T17:04:54.896Z,2.88
2022-10-17T17:07:24.311Z,2.53
2022-10-17T17:09:53.732Z,3.10
2022-10-17T17:12:27.963Z,2.75
2022-10-17T17:14:55.561Z,2.40
2022-10-17T17:17:37.146Z,2.50
2022-10-17T17:20:17.051Z,4.22
2022-10-17T17:22:44.931Z,2.42
2022-10-17T17:25:12.488Z,2.60
2022-10-17T17:27:46.895Z,2.72
2022-10-17T17:30:14.573Z,2.30
2022-10-17T17:32:42.406Z,3.22
2022-10-17T17:35:17.012Z,2.92
2022-10-17T17:37:45.125Z,2.60
2022-10-17T17:40:26.209Z,2.60
2022-10-17T17:42:54.003Z,2.60
2022-10-17T17:45:21.617Z,3.50
2022-10-17T17:47:56.020Z,2.53
2022-10-17T17:50:23.482Z,3.38
2022-10-17T17:52:51.303Z,3.08
2022-10-17T17:55:24.888Z,2.40
2022-10-17T17:57:52.376Z,2.67
2022-10-17T18:00:19.799Z,3.05
2022-10-17T18:02:53.878Z,3.25
2022-10-17T18:05:21.507Z,3.08
2022-10-17T18:07:49.419Z,3.55
2022-10-17T18:10:23.899Z,2.55
2022-10-17T18:12:52.223Z,3.00
2022-10-17T18:15:19.932Z,2.90
2022-10-17T18:17:53.942Z,2.85
2022-10-17T18:20:21.535Z,3.00
2022-10-17T18:22:49.091Z,3.05
2022-10-17T18:25:22.940Z,3.17
2022-10-17T18:27:50.392Z,2.60
2022-10-17T18:30:19.247Z,2.78
2022-10-17T18:32:55.003Z,3.00
2022-10-17T18:35:23.310Z,2.80
2022-10-17T18:37:51.493Z,2.78
2022-10-17T18:40:26.093Z,3.28
2022-10-17T18:43:00.358Z,2.60
2022-10-17T18:45:36.449Z,2.95
2022-10-17T18:48:04.351Z,2.65
2022-10-17T18:50:32.090Z,2.97
2022-10-17T18:53:09.014Z,3.15
2022-10-17T18:55:39.950Z,2.67
2022-10-17T18:58:07.928Z,2.75
2022-10-17T19:00:42.130Z,2.58
2022-10-17T19:03:09.583Z,2.90
2022-10-17T19:05:40.439Z,2.40
2022-10-17T19:08:15.091Z,2.33
2022-10-17T19:10:43.199Z,2.70
2022-10-17T19:13:12.018Z,2.63
2022-10-17T19:15:47.103Z,3.15
2022-10-17T19:18:17.099Z,3.25
2022-10-17T19:20:46.959Z,4.20
2022-10-17T19:23:23.053Z,3.60
2022-10-17T19:25:54.967Z,3.00
2022-10-17T19:28:38.739Z,3.15
2022-10-17T19:31:06.965Z,2.70
2022-10-17T19:33:35.118Z,2.95
2022-10-17T19:36:12.729Z,3.20
2022-10-17T19:38:40.497Z,3.03
2022-10-17T19:41:25.729Z,3.20
2022-10-17T19:43:53.723Z,2.75
2022-10-17T19:46:23.978Z,2.70
2022-10-17T19:49:03.896Z,3.03
2022-10-17T19:51:31.783Z,2.85
2022-10-17T19:54:00.962Z,3.60
2022-10-17T19:56:39.295Z,3.00
2022-10-17T19:59:08.069Z,4.07
2022-10-17T20:01:45.989Z,4.13
2022-10-17T20:04:13.748Z,3.28
2022-10-17T20:06:42.128Z,3.30
2022-10-17T20:09:19.565Z,3.50
2022-10-17T20:11:49.018Z,3.67
2022-10-17T20:14:16.631Z,3.80
2022-10-17T20:16:51.494Z,3.83
2022-10-17T20:19:19.849Z,3.28
2022-10-17T20:21:47.438Z,3.65
2022-10-17T20:24:25.576Z,2.72
2022-10-17T20:26:53.007Z,4.07
2022-10-17T20:29:24.250Z,3.40
2022-10-17T20:32:04.649Z,3.38
2022-10-17T20:34:35.552Z,3.65
2022-10-17T20:37:03.214Z,3.83
2022-10-17T20:39:39.581Z,3.40
2022-10-17T20:42:13.723Z,3.35
2022-10-17T20:44:50.835Z,3.60
2022-10-17T20:47:39.894Z,3.00
2022-10-17T20:50:16.678Z,3.58
2022-10-17T20:52:44.090Z,4.22
2022-10-17T20:55:11.478Z,3.28
2022-10-17T20:57:45.706Z,3.45
2022-10-17T21:00:15.715Z,3.40
2022-10-17T21:02:43.129Z,3.35
2022-10-17T21:05:16.933Z,3.75
2022-10-17T21:07:45.632Z,3.78
2022-10-17T21:10:34.251Z,3.20
2022-10-17T21:13:07.677Z,3.05
2022-10-17T21:15:35.165Z,3.33
2022-10-17T21:18:05.624Z,3.65
2022-10-17T21:20:39.635Z,3.55
2022-10-17T21:23:07.255Z,3.33
2022-10-17T21:25:34.654Z,3.45
2022-10-17T21:28:10.312Z,3.67
2022-10-17T21:30:40.295Z,3.80
2022-10-17T21:33:10.277Z,3.53
2022-10-17T21:35:44.326Z,3.28
2022-10-17T21:38:14.793Z,3.45
2022-10-17T21:41:02.354Z,3.63
2022-10-17T21:43:32.546Z,3.40
2022-10-17T21:46:18.027Z,3.42
2022-10-17T21:48:46.848Z,3.53
2022-10-17T21:51:16.357Z,3.10
2022-10-17T21:53:50.984Z,3.20
2022-10-17T21:56:20.955Z,3.55
2022-10-17T21:58:49.405Z,3.28
2022-10-17T22:01:25.087Z,3.53
2022-10-17T22:03:56.035Z,3.47
2022-10-17T22:06:41.055Z,3.60
2022-10-17T22:09:34.960Z,3.58
2022-10-17T22:12:09.120Z,3.28
2022-10-17T22:14:36.459Z,3.30
2022-10-17T22:17:03.923Z,3.42
2022-10-17T22:19:39.759Z,3.10
2022-10-17T22:22:07.216Z,3.10
2022-10-17T22:24:34.725Z,3.20
2022-10-17T22:27:08.742Z,3.05
2022-10-17T22:29:36.609Z,3.17
2022-10-17T22:32:04.046Z,3.20
2022-10-17T22:34:37.761Z,3.08
2022-10-17T22:37:05.108Z,2.92
2022-10-17T22:39:32.471Z,3.22
2022-10-17T22:42:06.790Z,3.45
2022-10-17T22:44:34.218Z,3.20
2022-10-17T22:47:01.622Z,3.50
2022-10-17T22:49:40.846Z,3.15
2022-10-17T22:52:10.575Z,3.38
2022-10-17T22:54:37.995Z,3.13
2022-10-17T22:57:11.645Z,2.95
2022-10-17T22:59:46.011Z,3.13
2022-10-17T23:02:13.441Z,3.35
2022-10-17T23:04:48.144Z,3.45
2022-10-17T23:07:15.507Z,3.10
2022-10-17T23:09:45.278Z,3.42
2022-10-17T23:12:19.321Z,2.90
2022-10-17T23:14:46.988Z,3.30
2022-10-17T23:17:14.769Z,3.20
2022-10-17T23:19:48.259Z,3.70
2022-10-17T23:22:15.720Z,3.50
2022-10-17T23:24:43.080Z,2.80
2022-10-17T23:27:18.859Z,3.65
2022-10-17T23:29:46.304Z,3.53
2022-10-17T23:32:14.086Z,3.00
2022-10-17T23:34:47.874Z,3.35
2022-10-17T23:37:21.863Z,3.35
2022-10-17T23:39:49.252Z,2.85
2022-10-17T23:42:25.027Z,2.88
2022-10-17T23:44:54.654Z,2.90
2022-10-17T23:47:22.000Z,3.28
2022-10-17T23:49:55.730Z,2.75
2022-10-17T23:52:23.080Z,2.92
2022-10-17T23:54:55.099Z,3.30
2022-10-17T23:57:34.022Z,2.80
